Time;durP1;ratioP1;P1;durP2;ratioP2;P2;SDS_P1;SDS_P2;PMS_P1;PMS_P2;Temp;Humidity;BMP_temperature;BMP_pressure;BME280_temperature;BME280_humidity;BME280_pressure;Samples;Min_cycle;Max_cycle;Signal;HPM_P1;HPM_P2
2024/04/19 00:01:32;;;;;;;0.60;0.50;;;;;;;9.41;80.65;97930.61;82055;1298;3012646;-69
2024/04/19 00:03:58;;;;;;;2.50;0.70;;;;;;;9.86;79.26;97926.59;82054;1295;3011126;-73
2024/04/19 00:06:26;;;;;;;0.80;0.70;;;;;;;10.32;77.18;97929.84;80825;1295;3026294;-67
2024/04/19 00:08:53;;;;;;;0.80;0.70;;;;;;;10.22;77.13;97940.41;82053;1295;3018228;-69
2024/04/19 00:11:19;;;;;;;2.70;0.90;;;;;;;10.04;77.59;97950.96;81992;1295;3011280;-65
2024/04/19 00:13:48;;;;;;;1.60;1.20;;;;;;;9.85;78.47;97939.91;80808;1295;3050045;-65
2024/04/19 00:16:15;;;;;;;1.20;1.10;;;;;;;9.67;79.21;97955.06;82076;1295;3012923;-62
2024/04/19 00:18:41;;;;;;;2.90;1.10;;;;;;;9.56;80.04;97953.30;82137;1295;3011657;-66
2024/04/19 00:21:09;;;;;;;1.40;1.00;;;;;;;9.47;80.51;97955.42;80899;1295;3025240;-64
2024/04/19 00:23:37;;;;;;;2.70;1.10;;;;;;;9.32;81.15;97952.98;82088;1298;3012324;-63
2024/04/19 00:26:04;;;;;;;3.40;1.20;;;;;;;9.18;81.38;97966.46;82111;1295;3011244;-66
2024/04/19 00:28:38;;;;;;;1.00;0.70;;;;;;;9.12;81.40;97972.03;80892;1296;3049963;-63
2024/04/19 00:31:04;;;;;;;0.90;0.70;;;;;;;9.48;80.26;97964.10;81975;1295;3012678;-63
2024/04/19 00:33:31;;;;;;;4.90;1.00;;;;;;;9.76;78.56;97973.77;82164;1295;3011261;-61
2024/04/19 00:35:59;;;;;;;1.30;1.10;;;;;;;9.51;79.87;97959.86;80844;1295;3025663;-66
2024/04/19 00:38:25;;;;;;;1.20;0.90;;;;;;;9.31;81.04;97983.29;82066;1295;3013180;-67
2024/04/19 00:40:52;;;;;;;1.10;1.00;;;;;;;9.35;81.34;97983.29;82036;1298;3011170;-64
2024/04/19 00:43:20;;;;;;;1.10;1.00;;;;;;;9.21;81.71;97974.98;80802;1294;3027132;-67
2024/04/19 00:45:47;;;;;;;1.30;1.20;;;;;;;9.24;81.13;97975.63;82108;1295;3018288;-67
2024/04/19 00:48:20;;;;;;;1.30;1.20;;;;;;;9.06;81.88;97981.37;82072;1295;3011313;-66
2024/04/19 00:50:55;;;;;;;1.40;1.10;;;;;;;9.00;82.36;97991.13;80815;1298;3052057;-70
2024/04/19 00:53:26;;;;;;;1.70;1.10;;;;;;;9.04;83.05;97986.91;82083;1298;3012582;-66
2024/04/19 00:55:55;;;;;;;2.40;1.00;;;;;;;9.47;81.05;97999.33;80837;1295;3052192;-69
2024/04/19 00:58:23;;;;;;;1.00;0.70;;;;;;;9.58;80.48;97997.95;82071;1294;3012810;-64
2024/04/19 01:00:50;;;;;;;3.20;0.90;;;;;;;9.86;78.78;97993.05;82006;1295;3011337;-64
2024/04/19 01:03:18;;;;;;;1.30;1.20;;;;;;;9.48;79.62;97996.80;80799;1295;3050910;-62
2024/04/19 01:05:44;;;;;;;1.40;1.00;;;;;;;9.33;80.59;98006.86;82096;1295;3011397;-65
2024/04/19 01:08:27;;;;;;;1.50;1.00;;;;;;;9.19;81.23;98020.03;80811;1294;3068076;-66
2024/04/19 01:10:54;;;;;;;1.80;1.20;;;;;;;9.27;80.87;98034.60;81998;1295;3012959;-68
2024/04/19 01:13:20;;;;;;;1.40;1.20;;;;;;;9.19;81.35;98026.28;82058;1294;3011327;-67
2024/04/19 01:15:48;;;;;;;2.30;1.00;;;;;;;9.14;81.90;98030.20;80788;1295;3025808;-66
2024/04/19 01:18:15;;;;;;;1.80;1.10;;;;;;;9.50;80.67;98021.60;82060;1295;3018551;-68
2024/04/19 01:20:42;;;;;;;1.20;1.00;;;;;;;9.74;78.97;98021.44;82050;1295;3011327;-65
2024/04/19 01:23:11;;;;;;;2.50;1.30;;;;;;;9.63;78.71;98037.16;80730;1295;3026640;-64
2024/04/19 01:25:38;;;;;;;1.30;1.20;;;;;;;9.64;78.72;98037.30;82075;1294;3013036;-66
2024/04/19 01:28:08;;;;;;;2.30;1.40;;;;;;;9.27;80.00;98025.35;82086;1294;3011567;-67
2024/04/19 01:30:42;;;;;;;1.30;1.10;;;;;;;9.24;80.20;98037.81;80795;1295;3052362;-62
2024/04/19 01:33:09;;;;;;;2.40;1.40;;;;;;;9.10;80.83;98029.93;82068;1295;3011341;-62
2024/04/19 01:35:37;;;;;;;4.80;1.60;;;;;;;8.97;81.61;98031.66;80826;1295;3052850;-66
2024/04/19 01:38:03;;;;;;;2.70;1.70;;;;;;;8.89;81.68;98033.82;82064;1295;3012511;-67
2024/04/19 01:40:30;;;;;;;1.70;1.10;;;;;;;8.68;82.84;98055.02;82068;1294;3011245;-68
2024/04/19 01:42:58;;;;;;;1.80;1.40;;;;;;;9.12;81.48;98039.60;80850;1294;3025922;-65
2024/04/19 01:45:24;;;;;;;1.80;1.30;;;;;;;9.49;79.55;98035.66;82149;1295;3018460;-64
2024/04/19 01:47:51;;;;;;;1.60;1.40;;;;;;;9.37;79.66;98047.09;82103;1296;3011301;-66
2024/04/19 01:50:19;;;;;;;2.00;1.40;;;;;;;9.31;79.17;98033.40;80721;1298;3027513;-66
2024/04/19 01:52:46;;;;;;;3.70;1.60;;;;;;;9.01;80.47;98054.03;82110;1294;3012351;-68
2024/04/19 01:55:14;;;;;;;2.60;1.50;;;;;;;9.01;80.71;98042.02;82097;1295;3011223;-65
2024/04/19 01:57:41;;;;;;;1.80;1.60;;;;;;;8.82;81.37;98038.19;80815;1295;3055367;-67
2024/04/19 02:00:08;;;;;;;2.20;1.70;;;;;;;8.67;82.62;98044.77;82066;1295;3011402;-69
2024/04/19 02:02:40;;;;;;;4.20;1.60;;;;;;;8.70;82.21;98046.77;81505;1298;3011490;-66
2024/04/19 02:05:07;;;;;;;1.50;1.40;;;;;;;8.67;83.35;98046.54;82057;1298;3018615;-66
2024/04/19 02:07:34;;;;;;;3.00;1.80;;;;;;;9.02;81.88;98042.41;82054;1298;3011390;-67
2024/04/19 02:10:01;;;;;;;2.30;1.60;;;;;;;9.29;80.72;98047.73;80802;1295;3026271;-65
2024/04/19 02:12:28;;;;;;;1.70;1.50;;;;;;;9.13;80.61;98046.17;82071;1294;3013249;-69
2024/04/19 02:14:55;;;;;;;4.50;1.90;;;;;;;9.15;80.40;98054.70;82011;1298;3011364;-73
2024/04/19 02:17:22;;;;;;;3.60;1.60;;;;;;;8.90;81.43;98057.13;80789;1295;3025893;-65
2024/04/19 02:19:49;;;;;;;2.30;1.90;;;;;;;8.78;82.38;98064.52;82065;1298;3018862;-66
2024/04/19 02:22:15;;;;;;;2.40;2.00;;;;;;;8.61;83.65;98053.91;82068;1298;3011280;-72
2024/04/19 02:24:43;;;;;;;4.60;1.50;;;;;;;8.58;84.14;98059.05;80829;1296;3025332;-67
2024/04/19 02:30:52;;;;;;;2.70;1.30;;;;;;;9.02;82.82;98073.41;82086;1295;3018766;-69
2024/04/19 02:32:45;;;;;;;2.40;1.50;;;;;;;9.15;81.05;98068.04;80781;1295;3052716;-64
2024/04/19 02:35:12;;;;;;;1.90;1.80;;;;;;;9.03;81.75;98071.55;82082;1297;3012895;-72
2024/04/19 02:37:38;;;;;;;2.50;2.10;;;;;;;8.94;82.55;98077.64;82091;1294;3011423;-65
2024/04/19 02:40:07;;;;;;;4.00;1.80;;;;;;;8.93;82.35;98092.38;80814;1298;3068128;-70
2024/04/19 02:42:34;;;;;;;2.60;1.90;;;;;;;8.70;83.50;98086.77;82072;1296;3012857;-68
2024/04/19 02:45:00;;;;;;;1.80;1.60;;;;;;;8.66;83.76;98088.48;82071;1295;3011108;-68
2024/04/19 02:47:28;;;;;;;2.90;1.50;;;;;;;8.69;84.14;98101.89;80767;1295;3052887;-67
2024/04/19 02:49:55;;;;;;;3.40;1.40;;;;;;;8.98;82.98;98100.73;82050;1298;3018689;-67
2024/04/19 02:52:22;;;;;;;2.30;1.60;;;;;;;9.25;81.64;98106.54;82024;1298;3011351;-68
2024/04/19 02:54:49;;;;;;;2.70;1.80;;;;;;;9.16;81.43;98100.05;80759;1298;3026169;-69
2024/04/19 02:57:16;;;;;;;1.80;1.50;;;;;;;9.09;81.98;98103.95;82061;1295;3018144;-72
2024/04/19 02:59:43;;;;;;;1.90;1.70;;;;;;;8.96;82.60;98114.88;82052;1295;3011201;-67
2024/04/19 03:02:10;;;;;;;4.10;1.90;;;;;;;8.72;83.66;98121.33;80752;1296;3026372;-69
2024/04/19 03:04:38;;;;;;;3.30;2.00;;;;;;;8.63;83.81;98111.88;82022;1295;3011689;-72
2024/04/19 03:07:04;;;;;;;3.70;1.40;;;;;;;8.42;85.08;98124.58;82049;1298;3011241;-69
2024/04/19 03:09:32;;;;;;;2.40;1.30;;;;;;;8.95;83.32;98125.59;80788;1298;3069045;-66
2024/04/19 03:11:59;;;;;;;2.40;1.60;;;;;;;9.31;81.05;98133.66;82029;1296;3018237;-69
2024/04/19 03:14:26;;;;;;;2.30;1.50;;;;;;;9.34;80.31;98134.38;81993;1295;3011490;-67
2024/04/19 03:16:54;;;;;;;2.00;1.60;;;;;;;9.11;80.61;98142.04;80752;1295;3025947;-68
2024/04/19 03:19:41;;;;;;;1.60;1.20;;;;;;;8.97;80.76;98155.48;80749;1301;3049222;-66
2024/04/19 03:22:08;;;;;;;1.60;1.30;;;;;;;8.70;81.79;98153.17;82014;1299;3018113;-71
2024/04/19 03:24:34;;;;;;;2.20;1.50;;;;;;;8.53;81.94;98160.63;82033;1295;3011310;-66
2024/04/19 03:27:03;;;;;;;2.40;1.20;;;;;;;8.54;82.59;98161.10;80705;1300;3025825;-66
2024/04/19 03:29:29;;;;;;;5.00;1.60;;;;;;;8.59;82.05;98167.69;82051;1296;3013254;-67
2024/04/19 03:31:56;;;;;;;1.10;0.90;;;;;;;8.78;81.16;98178.89;81982;1300;3011108;-66
2024/04/19 03:34:24;;;;;;;1.40;0.80;;;;;;;9.61;78.96;98170.17;80733;1297;3049775;-67
2024/04/19 03:36:51;;;;;;;1.50;1.10;;;;;;;9.55;76.99;98179.03;82036;1299;3012545;-65
2024/04/19 03:39:17;;;;;;;2.60;1.10;;;;;;;9.83;75.93;98181.61;82012;1296;3011262;-66
2024/04/19 03:41:47;;;;;;;1.60;1.10;;;;;;;9.59;75.76;98193.10;80776;1298;3026566;-67
2024/04/19 03:47:01;;;;;;;2.80;0.90;;;;;;;9.27;75.04;98204.83;80661;1298;3053155;-67
2024/04/19 03:49:28;;;;;;;1.20;0.70;;;;;;;9.08;74.62;98208.11;82089;1298;3013089;-69
2024/04/19 03:51:56;;;;;;;1.10;0.70;;;;;;;9.00;74.50;98216.91;82070;1294;3011187;-66
2024/04/19 03:54:24;;;;;;;0.70;0.50;;;;;;;8.97;74.63;98210.15;80819;1295;3068421;-68
2024/04/19 03:56:50;;;;;;;0.80;0.60;;;;;;;8.86;74.93;98221.28;82100;1295;3018766;-67
2024/04/19 03:59:17;;;;;;;1.50;0.90;;;;;;;8.75;75.39;98233.08;82049;1295;3011069;-66
2024/04/19 04:01:47;;;;;;;2.00;0.70;;;;;;;8.75;75.13;98231.10;80828;1295;3026417;-68
2024/04/19 04:04:14;;;;;;;0.70;0.50;;;;;;;8.45;76.62;98237.27;82008;1296;3011334;-72
2024/04/19 04:06:40;;;;;;;0.60;0.50;;;;;;;8.46;76.53;98245.61;82055;1295;3011361;-63
2024/04/19 04:09:08;;;;;;;1.20;0.60;;;;;;;8.46;77.10;98236.51;80766;1297;3067811;-65
2024/04/19 04:11:35;;;;;;;0.70;0.40;;;;;;;8.37;77.63;98259.63;82050;1295;3012990;-64
2024/04/19 04:14:01;;;;;;;1.20;0.60;;;;;;;8.29;77.97;98279.95;82019;1295;3011219;-68
2024/04/19 04:16:29;;;;;;;1.70;0.90;;;;;;;8.33;77.44;98259.07;80715;1295;3026673;-64
2024/04/19 04:18:56;;;;;;;2.40;1.00;;;;;;;8.43;77.51;98259.05;82027;1296;3012751;-65
2024/04/19 04:21:22;;;;;;;1.40;0.80;;;;;;;8.92;75.87;98268.30;82043;1299;3011644;-67
2024/04/19 04:23:50;;;;;;;5.60;1.40;;;;;;;9.25;73.80;98262.77;80727;1295;3025963;-69
2024/04/19 04:26:17;;;;;;;2.40;1.30;;;;;;;9.20;73.51;98267.98;82092;1295;3018745;-64
2024/04/19 04:28:43;;;;;;;2.10;1.10;;;;;;;9.07;73.97;98269.13;82081;1295;3011243;-66
2024/04/19 04:31:11;;;;;;;2.00;1.20;;;;;;;8.92;73.66;98274.42;80809;1295;3025451;-71
2024/04/19 04:33:37;;;;;;;3.80;1.50;;;;;;;8.91;73.61;98286.06;82060;1295;3013217;-65
2024/04/19 04:36:04;;;;;;;5.80;2.20;;;;;;;8.76;73.61;98299.86;82102;1296;3011045;-68
2024/04/19 04:38:32;;;;;;;4.00;1.30;;;;;;;8.60;74.23;98292.25;80815;1298;3026107;-68
2024/04/19 04:40:58;;;;;;;2.10;1.10;;;;;;;8.56;74.60;98296.91;82092;1294;3012735;-71
2024/04/19 04:43:25;;;;;;;2.20;0.90;;;;;;;8.61;74.18;98301.61;82052;1295;3011710;-68
2024/04/19 04:45:53;;;;;;;3.00;1.30;;;;;;;8.42;74.45;98301.33;80869;1295;3026720;-68
2024/04/19 04:48:20;;;;;;;4.40;1.30;;;;;;;8.31;75.30;98306.84;82123;1298;3011384;-67
2024/04/19 04:50:47;;;;;;;3.80;1.10;;;;;;;8.37;74.73;98319.15;82082;1295;3011125;-69
2024/04/19 04:53:16;;;;;;;5.60;1.40;;;;;;;8.29;74.64;98310.43;80870;1295;3069707;-67
2024/04/19 04:55:43;;;;;;;2.70;1.70;;;;;;;8.23;75.20;98328.10;82075;1295;3012526;-64
2024/04/19 04:58:09;;;;;;;1.60;1.40;;;;;;;8.31;75.10;98319.89;82113;1294;3011174;-65
2024/04/19 05:00:38;;;;;;;1.90;0.80;;;;;;;8.27;75.27;98320.67;80767;1296;3053733;-65
2024/04/19 05:03:05;;;;;;;3.20;1.10;;;;;;;8.20;75.85;98333.89;82105;1295;3013115;-67
2024/04/19 05:05:32;;;;;;;0.90;0.70;;;;;;;8.24;75.52;98350.20;82107;1294;3011419;-67
2024/04/19 05:08:00;;;;;;;2.70;0.80;;;;;;;8.22;75.19;98344.90;80803;1294;3068824;-70
2024/04/19 05:10:26;;;;;;;1.40;0.90;;;;;;;8.28;74.82;98373.29;82072;1294;3017979;-64
2024/04/19 05:12:53;;;;;;;4.30;1.20;;;;;;;8.20;74.44;98363.24;82074;1295;3011240;-70
2024/04/19 05:15:22;;;;;;;2.50;1.30;;;;;;;8.21;74.21;98364.36;80778;1295;3051953;-65
2024/04/19 05:17:48;;;;;;;1.00;0.90;;;;;;;8.36;73.41;98362.11;82120;1298;3011550;-66
2024/04/19 05:20:15;;;;;;;1.20;0.90;;;;;;;8.37;72.22;98367.79;82111;1295;3011423;-69
2024/04/19 05:22:43;;;;;;;3.30;1.30;;;;;;;8.45;70.32;98375.45;80911;1294;3026448;-67
2024/04/19 05:25:09;;;;;;;5.70;1.10;;;;;;;8.43;69.06;98382.23;82192;1294;3018144;-67
2024/04/19 05:27:36;;;;;;;2.60;0.90;;;;;;;8.37;69.54;98388.06;82112;1295;3011317;-68
2024/04/19 05:30:04;;;;;;;1.00;0.80;;;;;;;8.37;70.10;98392.39;80828;1295;3024938;-70
2024/04/19 05:32:32;;;;;;;4.30;0.70;;;;;;;8.33;70.15;98397.04;82052;1294;3011464;-70
2024/04/19 05:34:59;;;;;;;1.90;0.90;;;;;;;8.37;70.44;98400.62;82060;1295;3011414;-66
2024/04/19 05:37:27;;;;;;;0.60;0.60;;;;;;;8.55;69.70;98418.29;80728;1295;3068537;-67
2024/04/19 05:39:53;;;;;;;1.20;0.80;;;;;;;8.31;68.26;98432.77;82016;1296;3012523;-68
2024/04/19 05:42:20;;;;;;;1.10;0.60;;;;;;;8.11;68.25;98432.73;82048;1294;3011177;-71
2024/04/19 05:44:47;;;;;;;0.80;0.80;;;;;;;8.30;68.07;98429.68;80771;1298;3024614;-66
2024/04/19 05:47:14;;;;;;;4.70;0.90;;;;;;;8.30;68.14;98418.51;82029;1294;3019371;-64
2024/04/19 05:49:43;;;;;;;1.70;1.00;;;;;;;8.19;68.56;98435.86;82026;1297;3011138;-68
2024/04/19 05:52:11;;;;;;;5.20;1.40;;;;;;;8.24;68.93;98436.21;80804;1295;3067553;-65
2024/04/19 05:54:37;;;;;;;1.60;1.30;;;;;;;8.19;69.64;98451.19;82082;1295;3012843;-67
2024/04/19 05:57:04;;;;;;;4.90;1.40;;;;;;;8.26;69.60;98454.77;82040;1295;3011226;-71
2024/04/19 05:59:32;;;;;;;4.80;1.30;;;;;;;8.23;70.01;98451.78;80765;1294;3026271;-65
2024/04/19 06:01:58;;;;;;;2.10;1.20;;;;;;;8.09;70.67;98475.77;82034;1298;3018055;-68
2024/04/19 06:04:38;;;;;;;4.60;1.10;;;;;;;8.11;70.95;98471.60;80801;1295;3052275;-70
2024/04/19 06:07:05;;;;;;;2.90;1.20;;;;;;;8.13;70.66;98473.02;82089;1295;3018689;-74
2024/04/19 06:09:31;;;;;;;1.70;1.30;;;;;;;8.34;69.70;98475.53;82034;1295;3011349;-67
2024/04/19 06:12:01;;;;;;;1.60;1.10;;;;;;;8.47;69.22;98475.70;80822;1294;3026176;-68
2024/04/19 06:14:28;;;;;;;2.00;1.40;;;;;;;8.52;68.49;98488.45;82118;1295;3011367;-70
2024/04/19 06:16:54;;;;;;;1.10;1.00;;;;;;;8.43;68.56;98487.10;82080;1295;3011293;-70
2024/04/19 06:19:22;;;;;;;2.20;1.40;;;;;;;8.66;68.43;98479.13;80829;1295;3051624;-70
2024/04/19 06:21:48;;;;;;;5.20;1.30;;;;;;;8.79;67.53;98484.20;82111;1295;3012642;-65
2024/04/19 06:24:17;;;;;;;4.10;1.20;;;;;;;8.72;67.54;98489.35;82071;1295;3010992;-71
2024/04/19 06:26:45;;;;;;;4.40;1.20;;;;;;;8.87;66.49;98490.93;80812;1294;3049113;-68
2024/04/19 06:29:13;;;;;;;5.40;1.00;;;;;;;8.93;66.43;98510.48;82083;1295;3018027;-67
2024/04/19 06:31:39;;;;;;;4.70;0.80;;;;;;;8.96;66.57;98514.66;82051;1295;3011473;-60
2024/04/19 06:34:08;;;;;;;9.20;1.00;;;;;;;9.05;65.36;98516.77;80789;1295;3052748;-62
2024/04/19 06:36:35;;;;;;;3.40;0.90;;;;;;;9.02;65.67;98516.45;82103;1294;3018127;-64
2024/04/19 06:39:02;;;;;;;2.70;1.00;;;;;;;9.04;65.61;98523.00;82008;1296;3010957;-67
2024/04/19 06:41:31;;;;;;;1.60;0.90;;;;;;;9.32;65.18;98543.39;80806;1295;3049244;-68
2024/04/19 06:43:58;;;;;;;1.60;0.80;;;;;;;9.37;64.95;98535.55;82099;1295;3011144;-65
2024/04/19 06:46:24;;;;;;;5.10;1.40;;;;;;;9.46;64.30;98540.16;82010;1296;3011338;-69
2024/04/19 06:48:53;;;;;;;2.10;1.10;;;;;;;9.45;64.04;98544.95;80793;1295;3053376;-64
2024/04/19 06:51:20;;;;;;;1.90;0.90;;;;;;;9.46;64.08;98553.25;82124;1295;3013054;-65
2024/04/19 06:53:46;;;;;;;1.30;1.10;;;;;;;9.45;64.41;98548.27;82046;1295;3011255;-64
2024/04/19 06:56:14;;;;;;;1.10;0.90;;;;;;;9.47;64.60;98546.02;80803;1295;3049070;-67
2024/04/19 06:58:43;;;;;;;2.80;0.80;;;;;;;9.69;63.79;98567.02;82100;1294;3013257;-66
2024/04/19 07:01:09;;;;;;;2.50;0.70;;;;;;;9.44;63.88;98566.70;82097;1294;3011627;-63
2024/04/19 07:03:38;;;;;;;5.50;0.80;;;;;;;9.58;63.46;98553.86;80748;1294;3052442;-65
2024/04/19 07:06:11;;;;;;;3.60;0.70;;;;;;;9.66;63.35;98573.72;82090;1295;3012537;-64
2024/04/19 07:08:40;;;;;;;0.80;0.70;;;;;;;9.50;63.45;98580.77;80839;1295;3056409;-67
2024/04/19 07:11:06;;;;;;;1.30;0.80;;;;;;;9.59;63.30;98584.16;82083;1294;3012672;-62
2024/04/19 07:13:33;;;;;;;0.90;0.70;;;;;;;9.61;63.40;98565.15;82072;1295;3011410;-65
2024/04/19 07:16:01;;;;;;;1.90;0.90;;;;;;;9.76;63.31;98589.25;80830;1295;3052296;-66
2024/04/19 07:18:28;;;;;;;1.00;0.80;;;;;;;9.76;62.99;98576.02;82103;1295;3019065;-65
2024/04/19 07:20:54;;;;;;;2.40;0.90;;;;;;;9.63;64.25;98575.13;82071;1294;3011267;-67
2024/04/19 07:23:22;;;;;;;2.40;1.10;;;;;;;9.68;64.27;98575.29;80799;1294;3026338;-64
2024/04/19 07:25:49;;;;;;;5.90;1.00;;;;;;;9.95;62.89;98572.89;82074;1294;3013170;-68
2024/04/19 07:28:16;;;;;;;0.90;0.60;;;;;;;10.12;61.83;98595.62;82049;1295;3011738;-67
2024/04/19 07:30:44;;;;;;;1.70;0.70;;;;;;;10.08;61.47;98582.25;80811;1295;3026144;-71
2024/04/19 07:33:10;;;;;;;1.10;0.70;;;;;;;10.16;61.45;98588.84;82074;1295;3013163;-69
2024/04/19 07:35:37;;;;;;;1.10;0.50;;;;;;;10.11;61.85;98590.77;82070;1295;3011462;-63
2024/04/19 07:38:05;;;;;;;1.50;0.60;;;;;;;10.16;62.14;98609.35;80796;1294;3025786;-65
2024/04/19 07:40:34;;;;;;;1.50;0.60;;;;;;;10.29;61.45;98597.89;82063;1295;3018148;-63
2024/04/19 07:43:04;;;;;;;1.70;0.70;;;;;;;10.40;60.89;98628.45;81536;1295;3011516;-65
2024/04/19 07:45:30;;;;;;;2.00;0.50;;;;;;;10.42;60.40;98611.80;82048;1295;3019145;-65
2024/04/19 07:47:57;;;;;;;1.30;0.50;;;;;;;10.53;59.98;98630.13;82043;1293;3011203;-66
2024/04/19 07:50:25;;;;;;;1.40;0.60;;;;;;;10.45;60.64;98615.48;80787;1294;3026587;-66
2024/04/19 07:52:51;;;;;;;1.80;0.70;;;;;;;10.34;61.50;98620.25;82091;1294;3018112;-66
2024/04/19 07:55:18;;;;;;;2.50;0.60;;;;;;;10.54;60.84;98642.69;82067;1294;3011435;-64
2024/04/19 07:57:49;;;;;;;1.60;0.80;;;;;;;10.53;60.29;98632.95;80710;1295;3027152;-66
2024/04/19 08:00:21;;;;;;;4.30;0.90;;;;;;;10.74;59.02;98642.25;82046;1295;3011404;-65
2024/04/19 08:02:49;;;;;;;0.70;0.50;;;;;;;10.93;58.94;98636.26;80798;1298;3051811;-64
2024/04/19 08:05:17;;;;;;;2.70;0.80;;;;;;;10.89;59.12;98657.61;82066;1294;3012695;-68
2024/04/19 08:07:43;;;;;;;2.50;0.90;;;;;;;10.99;59.54;98633.72;82055;1294;3011603;-65
2024/04/19 08:10:15;;;;;;;8.30;0.90;;;;;;;11.24;59.46;98640.59;80812;1295;3057288;-64
2024/04/19 08:12:44;;;;;;;1.00;0.80;;;;;;;11.35;58.62;98663.59;82018;1294;3011476;-67
2024/04/19 08:15:12;;;;;;;0.90;0.70;;;;;;;11.32;56.93;98669.97;80811;1295;3053337;-64
2024/04/19 08:17:41;;;;;;;3.90;0.80;;;;;;;11.13;57.23;98667.38;82097;1295;3012796;-65
2024/04/19 08:20:10;;;;;;;0.90;0.60;;;;;;;11.17;58.23;98671.62;82081;1295;3011453;-66
2024/04/19 08:22:38;;;;;;;3.20;0.80;;;;;;;10.89;59.01;98677.56;80775;1294;3067701;-63
2024/04/19 08:25:06;;;;;;;1.60;0.80;;;;;;;11.06;58.22;98672.66;82093;1295;3018890;-65
2024/04/19 08:27:34;;;;;;;2.20;0.90;;;;;;;11.10;57.56;98693.39;82103;1294;3011273;-65
2024/04/19 08:30:02;;;;;;;1.00;0.60;;;;;;;11.04;58.06;98681.86;80826;1295;3052593;-66
2024/04/19 08:32:29;;;;;;;5.70;0.90;;;;;;;10.98;58.34;98700.42;82068;1295;3013126;-62
2024/04/19 08:34:58;;;;;;;1.90;1.00;;;;;;;11.05;58.47;98685.70;82074;1295;3011340;-63
2024/04/19 08:37:26;;;;;;;3.60;0.90;;;;;;;11.18;58.49;98682.39;80805;1294;3070050;-65
2024/04/19 08:39:53;;;;;;;3.00;0.90;;;;;;;11.41;57.34;98699.46;82075;1295;3012659;-66
2024/04/19 08:42:20;;;;;;;0.80;0.60;;;;;;;11.46;55.95;98716.61;82068;1294;3011304;-67
2024/04/19 08:44:48;;;;;;;4.10;0.90;;;;;;;11.47;55.52;98700.42;80805;1294;3026598;-65
2024/04/19 08:47:15;;;;;;;4.70;0.80;;;;;;;11.71;56.13;98678.04;82050;1295;3013034;-70
2024/04/19 08:49:43;;;;;;;0.70;0.70;;;;;;;11.71;54.95;98695.41;82080;1295;3011443;-62
2024/04/19 08:52:11;;;;;;;1.60;0.90;;;;;;;11.66;54.50;98696.33;80803;1295;3069794;-67
2024/04/19 08:54:37;;;;;;;1.90;0.60;;;;;;;11.73;55.11;98710.54;82094;1295;3012827;-66
2024/04/19 08:57:04;;;;;;;1.60;0.60;;;;;;;11.90;53.88;98713.38;82084;1294;3011572;-65
2024/04/19 08:59:34;;;;;;;3.90;1.70;;;;;;;11.85;54.14;98693.30;80735;1295;3053300;-67
2024/04/19 09:02:01;;;;;;;3.10;0.70;;;;;;;11.96;54.17;98705.92;81940;1297;3012652;-63
2024/04/19 09:04:28;;;;;;;2.30;1.00;;;;;;;12.05;54.01;98700.33;82083;1295;3011405;-63
2024/04/19 09:06:55;;;;;;;2.80;0.80;;;;;;;12.08;53.99;98713.60;80797;1294;3026113;-64
2024/04/19 09:09:23;;;;;;;1.30;0.70;;;;;;;12.18;54.07;98709.52;82099;1294;3011483;-63
2024/04/19 09:11:49;;;;;;;2.50;1.10;;;;;;;12.11;54.05;98711.98;82042;1295;3011464;-66
2024/04/19 09:14:17;;;;;;;1.40;1.00;;;;;;;12.21;54.37;98707.73;80802;1294;3025866;-66
2024/04/19 09:16:47;;;;;;;0.90;0.80;;;;;;;12.37;53.47;98719.73;82063;1294;3012665;-67
2024/04/19 09:19:13;;;;;;;0.60;0.50;;;;;;;12.34;52.20;98745.06;82088;1294;3011297;-66
2024/04/19 09:21:41;;;;;;;0.50;0.50;;;;;;;12.06;52.46;98733.80;80774;1295;3068718;-63
2024/04/19 09:24:09;;;;;;;3.20;0.80;;;;;;;12.19;53.16;98747.35;82031;1295;3013569;-65
2024/04/19 09:26:35;;;;;;;3.30;0.80;;;;;;;12.19;53.92;98740.69;82073;1294;3011289;-64
2024/04/19 09:29:05;;;;;;;2.20;0.80;;;;;;;11.96;54.38;98749.47;80796;1294;3052339;-68
2024/04/19 09:31:32;;;;;;;3.90;0.70;;;;;;;11.90;53.75;98771.14;81966;1295;3011399;-63
2024/04/19 09:33:59;;;;;;;1.90;0.70;;;;;;;11.70;53.95;98745.63;82005;1300;3011429;-64
2024/04/19 09:36:27;;;;;;;0.90;0.60;;;;;;;11.81;53.74;98755.02;80803;1294;3066488;-66
2024/04/19 09:38:53;;;;;;;1.20;0.60;;;;;;;11.80;53.92;98751.90;82067;1294;3012637;-65
2024/04/19 09:41:20;;;;;;;4.20;0.70;;;;;;;11.98;53.38;98761.80;81943;1295;3011106;-61
2024/04/19 09:43:49;;;;;;;1.40;0.70;;;;;;;11.97;52.29;98766.57;80628;1295;3026353;-65
2024/04/19 09:46:28;;;;;;;2.70;0.50;;;;;;;12.06;50.89;98773.99;82054;1295;3011362;-65
2024/04/19 09:48:58;;;;;;;1.60;0.50;;;;;;;11.95;52.52;98764.84;80835;1294;3053013;-68
2024/04/19 09:51:30;;;;;;;0.80;0.50;;;;;;;11.97;53.30;98748.52;82064;1295;3011168;-64
2024/04/19 09:53:58;;;;;;;2.00;1.20;;;;;;;12.25;53.23;98754.23;80669;1300;3050895;-66
2024/04/19 09:56:35;;;;;;;3.60;0.90;;;;;;;12.40;52.07;98757.81;81911;1295;3011368;-62
2024/04/19 09:59:02;;;;;;;1.00;0.70;;;;;;;12.52;51.84;98776.00;80750;1295;3052618;-64
2024/04/19 10:01:29;;;;;;;1.60;0.80;;;;;;;12.42;51.82;98785.39;81925;1297;3018721;-65
2024/04/19 10:03:56;;;;;;;1.60;0.70;;;;;;;12.30;52.32;98775.48;82048;1294;3011374;-63
2024/04/19 10:06:25;;;;;;;1.90;0.60;;;;;;;12.15;52.90;98790.11;80823;1294;3026093;-63
2024/04/19 10:08:52;;;;;;;2.20;0.50;;;;;;;12.29;52.77;98774.63;81908;1295;3013458;-66
2024/04/19 10:11:18;;;;;;;1.40;0.70;;;;;;;12.31;50.97;98776.96;82000;1294;3011265;-64
2024/04/19 10:13:46;;;;;;;0.40;0.40;;;;;;;12.42;50.04;98782.27;80681;1295;3053067;-64
2024/04/19 10:16:13;;;;;;;1.60;0.70;;;;;;;12.42;49.52;98802.29;82061;1295;3013116;-65
2024/04/19 10:18:40;;;;;;;2.20;0.70;;;;;;;12.36;49.79;98800.11;82063;1295;3011138;-65
2024/04/19 10:21:07;;;;;;;0.60;0.50;;;;;;;12.28;51.03;98800.04;80706;1295;3026227;-65
2024/04/19 10:23:36;;;;;;;1.10;0.60;;;;;;;12.17;51.05;98786.44;82075;1294;3018112;-66
2024/04/19 10:26:03;;;;;;;1.60;0.70;;;;;;;12.18;51.79;98813.77;82041;1294;3011241;-63
2024/04/19 10:28:31;;;;;;;1.30;0.80;;;;;;;12.24;51.50;98814.21;80715;1295;3052446;-67
2024/04/19 10:30:58;;;;;;;2.20;0.50;;;;;;;12.29;51.22;98818.36;82100;1294;3011412;-63
2024/04/19 10:33:25;;;;;;;1.10;0.80;;;;;;;12.49;51.02;98812.42;82067;1294;3010921;-65
2024/04/19 10:35:53;;;;;;;0.90;0.70;;;;;;;12.68;51.17;98808.62;80795;1295;3026678;-64
2024/04/19 10:38:20;;;;;;;0.70;0.70;;;;;;;12.67;50.34;98823.61;82079;1294;3012855;-64
2024/04/19 10:40:46;;;;;;;2.10;0.80;;;;;;;12.64;50.37;98821.91;82009;1294;3011421;-62
2024/04/19 10:43:14;;;;;;;1.50;0.80;;;;;;;12.67;50.22;98822.79;80790;1295;3025186;-64
2024/04/19 10:45:43;;;;;;;2.60;0.60;;;;;;;12.83;49.42;98821.51;82031;1295;3018062;-65
2024/04/19 10:48:10;;;;;;;4.60;0.80;;;;;;;12.74;49.62;98830.48;82067;1295;3011217;-68
2024/04/19 10:50:38;;;;;;;0.90;0.70;;;;;;;12.61;50.71;98827.48;80744;1294;3067830;-67
2024/04/19 10:53:04;;;;;;;1.20;0.80;;;;;;;12.81;50.87;98836.66;81939;1295;3012941;-68
2024/04/19 10:55:31;;;;;;;1.50;0.70;;;;;;;12.80;50.43;98827.86;82026;1294;3011418;-64
2024/04/19 10:57:59;;;;;;;1.40;0.70;;;;;;;12.73;50.61;98827.38;80774;1295;3026954;-64
2024/04/19 11:00:26;;;;;;;1.70;0.70;;;;;;;12.62;50.68;98830.70;82060;1295;3012771;-66
2024/04/19 11:02:53;;;;;;;2.50;0.80;;;;;;;12.73;50.27;98829.51;82070;1294;3010905;-67
2024/04/19 11:05:21;;;;;;;3.40;0.70;;;;;;;12.85;48.93;98836.26;80827;1294;3068206;-67
2024/04/19 11:07:47;;;;;;;4.50;0.70;;;;;;;12.91;48.04;98836.52;82115;1294;3012287;-66
2024/04/19 11:10:14;;;;;;;1.70;0.60;;;;;;;12.86;48.42;98844.48;82067;1294;3011381;-66
2024/04/19 11:12:42;;;;;;;1.40;0.80;;;;;;;12.74;49.47;98842.09;80755;1295;3026022;-66
2024/04/19 11:15:09;;;;;;;1.20;0.80;;;;;;;12.80;49.74;98831.02;82084;1294;3013244;-67
2024/04/19 11:17:37;;;;;;;1.10;0.80;;;;;;;12.84;49.16;98838.86;82097;1295;3011285;-66
2024/04/19 11:20:05;;;;;;;5.20;0.60;;;;;;;12.88;48.57;98837.59;80709;1296;3068749;-65
2024/04/19 11:22:36;;;;;;;1.70;0.80;;;;;;;13.00;47.67;98842.63;82107;1293;3012620;-67
2024/04/19 11:25:04;;;;;;;2.70;1.20;;;;;;;13.09;48.16;98837.38;80817;1294;3048729;-69
2024/04/19 11:27:31;;;;;;;3.80;0.80;;;;;;;13.47;47.71;98840.23;81998;1294;3013045;-64
2024/04/19 11:29:58;;;;;;;1.30;0.90;;;;;;;13.71;47.32;98842.21;82075;1293;3011152;-64